createdAt,value
2022-11-19T00:00:00.480Z,98784.78
2022-11-19T00:02:28.528Z,98786.75
2022-11-19T00:04:56.839Z,98792.09
2022-11-19T00:07:24.950Z,98788.84
2022-11-19T00:09:54.374Z,98799.38
2022-11-19T00:12:39.765Z,98807.59
2022-11-19T00:15:22.318Z,98803.16
2022-11-19T00:17:50.684Z,98809.56
2022-11-19T00:20:22.611Z,98819.19
2022-11-19T00:22:54.498Z,98825.50
2022-11-19T00:25:25.124Z,98820.50
2022-11-19T00:27:53.426Z,98827.47
2022-11-19T00:30:46.389Z,98820.69
2022-11-19T00:33:09.937Z,98821.66
2022-11-19T00:35:38.023Z,98831.19
2022-11-19T00:38:05.998Z,98833.91
2022-11-19T00:40:38.179Z,98832.34
2022-11-19T00:43:23.723Z,98840.25
2022-11-19T00:45:51.743Z,98845.53
2022-11-19T00:48:19.773Z,98844.88
2022-11-19T00:50:47.749Z,98843.25
2022-11-19T00:53:15.744Z,98831.53
2022-11-19T00:55:45.135Z,98841.13
2022-11-19T00:58:13.128Z,98846.06
2022-11-19T01:00:42.734Z,98842.91
2022-11-19T01:03:10.852Z,98864.00
2022-11-19T01:05:38.823Z,98875.38
2022-11-19T01:08:07.069Z,98886.00
2022-11-19T01:10:36.971Z,98904.31
2022-11-19T01:13:24.072Z,98913.13
2022-11-19T01:15:54.650Z,98911.53
2022-11-19T01:18:22.729Z,98917.94
2022-11-19T01:20:50.816Z,98925.69
2022-11-19T01:23:18.799Z,98911.00
2022-11-19T01:25:46.919Z,98924.22
2022-11-19T01:28:16.307Z,98939.19
2022-11-19T01:30:45.190Z,98940.25
2022-11-19T01:33:13.423Z,98944.69
2022-11-19T01:35:41.499Z,98944.84
2022-11-19T01:38:09.688Z,98933.84
2022-11-19T01:40:43.322Z,98938.31
2022-11-19T01:43:12.765Z,98942.97
2022-11-19T01:45:44.236Z,98945.94
2022-11-19T01:48:18.028Z,98956.47
2022-11-19T01:50:51.164Z,98969.59
2022-11-19T01:53:20.690Z,98960.91
2022-11-19T01:55:49.729Z,98966.31
2022-11-19T01:58:22.144Z,98972.91
2022-11-19T02:00:51.536Z,98969.81
2022-11-19T02:03:20.154Z,98976.78
2022-11-19T02:05:48.920Z,98976.03
2022-11-19T02:08:39.630Z,98981.06
2022-11-19T02:11:38.338Z,98992.19
2022-11-19T02:14:18.644Z,99005.22
2022-11-19T02:16:58.304Z,99018.25
2022-11-19T02:20:03.777Z,99012.50
2022-11-19T02:22:51.454Z,99014.22
2022-11-19T02:25:33.135Z,99006.66
2022-11-19T02:28:20.191Z,99003.44
2022-11-19T02:30:52.172Z,99014.91
2022-11-19T02:33:27.614Z,99023.50
2022-11-19T02:36:00.286Z,99028.00
2022-11-19T02:38:33.343Z,99034.97
2022-11-19T02:41:28.159Z,99044.47
2022-11-19T02:44:22.083Z,99048.75
2022-11-19T02:46:54.473Z,99065.19
2022-11-19T02:49:26.954Z,99074.72
2022-11-19T02:52:15.845Z,99077.25
2022-11-19T02:54:44.114Z,99092.53
2022-11-19T02:57:13.318Z,99088.94
2022-11-19T03:00:02.380Z,99080.22
2022-11-19T03:02:54.460Z,99077.91
2022-11-19T03:05:26.825Z,99069.41
2022-11-19T03:07:55.312Z,99071.22
2022-11-19T03:10:27.935Z,99081.59
2022-11-19T03:12:59.952Z,99105.84
2022-11-19T03:15:56.508Z,99098.75
2022-11-19T03:18:34.098Z,99108.72
2022-11-19T03:21:08.778Z,99119.09
2022-11-19T03:23:42.027Z,99120.63
2022-11-19T03:26:19.828Z,99116.81
2022-11-19T03:28:49.308Z,99114.16
2022-11-19T03:31:20.149Z,99109.91
2022-11-19T03:33:52.959Z,99123.69
2022-11-19T03:36:22.884Z,99129.69
2022-11-19T03:38:53.991Z,99129.53
2022-11-19T03:41:25.028Z,99140.84
2022-11-19T03:43:57.942Z,99140.97
2022-11-19T03:46:27.799Z,99135.69
2022-11-19T03:48:58.630Z,99131.81
2022-11-19T03:51:33.887Z,99136.56
2022-11-19T03:54:01.928Z,99140.56
2022-11-19T03:56:32.098Z,99151.22
2022-11-19T03:59:00.520Z,99154.84
2022-11-19T04:01:28.620Z,99151.34
2022-11-19T04:04:15.365Z,99149.59
2022-11-19T04:06:43.305Z,99153.06
2022-11-19T04:09:11.338Z,99162.81
2022-11-19T04:11:39.383Z,99162.78
2022-11-19T04:14:07.400Z,99185.41
2022-11-19T04:16:35.398Z,99194.88
2022-11-19T04:19:07.391Z,99198.22
2022-11-19T04:21:35.388Z,99199.84
2022-11-19T04:24:03.432Z,99212.81
2022-11-19T04:26:31.407Z,99200.97
2022-11-19T04:28:59.407Z,99215.81
2022-11-19T04:31:27.393Z,99222.63
2022-11-19T04:33:55.392Z,99218.47
2022-11-19T04:36:24.724Z,99224.81
2022-11-19T04:38:52.702Z,99223.25
2022-11-19T04:41:20.713Z,99237.09
2022-11-19T04:43:48.714Z,99249.16
2022-11-19T04:46:16.775Z,99252.53
2022-11-19T04:48:44.819Z,99257.63
2022-11-19T04:51:12.846Z,99266.09
2022-11-19T04:53:42.241Z,99266.78
2022-11-19T04:56:10.326Z,99271.09
2022-11-19T04:58:38.586Z,99284.88
2022-11-19T05:01:06.773Z,99290.19
2022-11-19T05:03:35.089Z,99298.72
2022-11-19T05:06:03.262Z,99296.19
2022-11-19T05:08:31.273Z,99295.25
2022-11-19T05:11:00.627Z,99301.28
2022-11-19T05:13:28.647Z,99299.50
2022-11-19T05:15:56.637Z,99302.13
2022-11-19T05:18:24.852Z,99309.09
2022-11-19T05:20:52.882Z,99298.69
2022-11-19T05:23:21.203Z,99298.72
2022-11-19T05:25:49.229Z,99311.84
2022-11-19T05:28:20.093Z,99318.63
2022-11-19T05:30:55.313Z,99319.47
2022-11-19T05:33:23.352Z,99318.53
2022-11-19T05:35:51.413Z,99320.16
2022-11-19T05:38:19.405Z,99328.09
2022-11-19T05:40:47.734Z,99322.75
2022-11-19T05:43:15.777Z,99330.81
2022-11-19T05:45:45.288Z,99325.03
2022-11-19T05:48:13.301Z,99337.25
2022-11-19T05:50:42.404Z,99347.63
2022-11-19T05:53:10.505Z,99356.31
2022-11-19T05:55:38.487Z,99350.03
2022-11-19T05:58:06.432Z,99346.25
2022-11-19T06:00:34.405Z,99357.41
2022-11-19T06:03:03.849Z,99370.28
2022-11-19T06:05:37.252Z,99371.06
2022-11-19T06:08:08.027Z,99369.13
2022-11-19T06:10:36.061Z,99364.78
2022-11-19T06:13:17.929Z,99370.00
2022-11-19T06:15:45.965Z,99377.03
2022-11-19T06:18:15.389Z,99390.84
2022-11-19T06:20:43.424Z,99401.03
2022-11-19T06:23:11.428Z,99417.31
2022-11-19T06:25:39.553Z,99411.16
2022-11-19T06:28:07.576Z,99410.19
2022-11-19T06:30:35.559Z,99407.41
2022-11-19T06:33:24.898Z,99408.19
2022-11-19T06:35:52.961Z,99418.75
2022-11-19T06:38:21.078Z,99405.66
2022-11-19T06:40:49.528Z,99411.34
2022-11-19T06:43:17.553Z,99417.03
2022-11-19T06:45:45.765Z,99414.19
2022-11-19T06:48:13.814Z,99416.88
2022-11-19T06:50:43.200Z,99419.28
2022-11-19T06:53:11.230Z,99426.81
2022-11-19T06:55:39.384Z,99438.69
2022-11-19T06:58:08.530Z,99435.38
2022-11-19T07:00:37.010Z,99436.25
2022-11-19T07:03:05.158Z,99424.25
2022-11-19T07:05:33.323Z,99433.44
2022-11-19T07:08:03.485Z,99437.47
2022-11-19T07:10:31.800Z,99447.31
2022-11-19T07:12:59.787Z,99453.00
2022-11-19T07:15:27.888Z,99445.91
2022-11-19T07:17:57.189Z,99440.25
2022-11-19T07:20:25.485Z,99447.59
2022-11-19T07:22:58.778Z,99447.13
2022-11-19T07:25:29.152Z,99444.47
2022-11-19T07:27:58.130Z,99455.91
2022-11-19T07:30:26.362Z,99461.97
2022-11-19T07:32:55.094Z,99472.28
2022-11-19T07:35:23.220Z,99471.59
2022-11-19T07:37:51.472Z,99478.72
2022-11-19T07:40:19.509Z,99470.44
2022-11-19T07:42:50.989Z,99466.75
2022-11-19T07:45:20.352Z,99458.63
2022-11-19T07:47:48.390Z,99461.34
2022-11-19T07:50:17.276Z,99454.00
2022-11-19T07:52:45.527Z,99452.09
2022-11-19T07:55:27.585Z,99448.13
2022-11-19T07:57:56.969Z,99453.91
2022-11-19T08:00:25.373Z,99459.91
2022-11-19T08:03:13.412Z,99459.19
2022-11-19T08:05:42.157Z,99475.59
2022-11-19T08:08:10.577Z,99476.03
2022-11-19T08:10:38.771Z,99472.16
2022-11-19T08:13:08.190Z,99471.75
2022-11-19T08:15:38.987Z,99473.63
2022-11-19T08:18:15.876Z,99465.25
2022-11-19T08:20:45.823Z,99477.75
2022-11-19T08:23:14.727Z,99490.09
2022-11-19T08:25:47.828Z,99502.47
2022-11-19T08:28:17.769Z,99505.41
2022-11-19T08:30:46.849Z,99502.56
2022-11-19T08:33:15.058Z,99511.53
2022-11-19T08:35:43.174Z,99498.84
2022-11-19T08:38:11.402Z,99508.19
2022-11-19T08:40:39.632Z,99530.38
2022-11-19T08:43:07.765Z,99518.41
2022-11-19T08:45:39.033Z,99527.94
2022-11-19T08:48:13.410Z,99520.03
2022-11-19T08:50:43.063Z,99541.50
2022-11-19T08:53:11.054Z,99528.34
2022-11-19T08:55:39.235Z,99521.06
2022-11-19T08:58:09.068Z,99514.66
2022-11-19T09:00:38.825Z,99510.53
2022-11-19T09:03:06.895Z,99512.72
2022-11-19T09:05:35.780Z,99541.81
2022-11-19T09:08:03.774Z,99573.50
2022-11-19T09:10:31.769Z,99585.75
2022-11-19T09:12:59.727Z,99585.53
2022-11-19T09:15:27.739Z,99599.81
2022-11-19T09:17:57.100Z,99591.47
2022-11-19T09:20:25.141Z,99587.63
2022-11-19T09:22:53.192Z,99591.47
2022-11-19T09:25:21.189Z,99594.03
